Alpine, Mississippi
Current Conditions -  °F | °C
As of 11:53 AM on Sunday 21 Dec 2014 (Local Time) from KTUP Reporting Station
Clear Clear  
Wind Chill: 52°   Ceiling: Unl
Heat Index: 52°   Visibility: 10mi
Dew Point: 35°   Wind: 3mph
Humidity: 53%   Direction: 110°ESE
Pressure: 30.14"   Gusts: NA
Location:  34.4333°N, 88.8629°W
Report Text: KTUP 211753Z 11003KT 10SM CLR 11/02 A3014 RMK AO2 SLP207 T01110017 10111 21022 58019
Loading
Personal Weather Stations






























Interactive Weather Map New forecast layout! Learn more

10-Day Weather Forecast

Advertisements
Track Severe Weather on mobile